Time;durP1;ratioP1;P1;durP2;ratioP2;P2;SDS_P1;SDS_P2;PMS_P1;PMS_P2;Temp;Humidity;BMP_temperature;BMP_pressure;BME280_temperature;BME280_humidity;BME280_pressure;Samples;Min_cycle;Max_cycle;Signal;HPM_P1;HPM_P2
2022/01/17 00:03:01;;;;;;;16.98;11.48;;;;;;;2.71;69.12;101306.50;10472300;28;20052;-63
2022/01/17 00:08:04;;;;;;;19.63;12.80;;;;;;;2.75;68.95;101307.34;10471041;28;20142;-63
2022/01/17 00:13:05;;;;;;;18.65;11.90;;;;;;;2.77;69.07;101301.28;10471156;28;20060;-63
2022/01/17 00:23:16;;;;;;;17.85;12.45;;;;;;;2.78;68.99;101299.59;10470468;28;20049;-63
2022/01/17 00:28:18;;;;;;;19.95;12.50;;;;;;;2.70;69.53;101297.03;10452248;28;20164;-64
2022/01/17 00:33:19;;;;;;;19.05;12.45;;;;;;;2.67;69.49;101294.47;10470739;28;20451;-63
2022/01/17 00:38:21;;;;;;;20.40;12.63;;;;;;;2.60;69.70;101290.19;10452367;28;20129;-63
2022/01/17 00:43:23;;;;;;;20.52;12.68;;;;;;;2.50;69.77;101279.94;10469995;28;20052;-63
2022/01/17 00:48:25;;;;;;;19.40;12.43;;;;;;;2.42;70.13;101284.31;10469292;28;20055;-64
2022/01/17 00:53:27;;;;;;;19.42;12.05;;;;;;;2.53;69.82;101280.78;10469127;28;20076;-63
2022/01/17 00:58:28;;;;;;;19.75;12.00;;;;;;;2.49;69.76;101271.34;10469398;28;20389;-64
2022/01/17 01:03:30;;;;;;;19.38;12.43;;;;;;;2.55;69.69;101279.06;10469109;28;20060;-63
2022/01/17 01:08:33;;;;;;;21.48;12.45;;;;;;;2.52;69.93;101302.28;10468597;28;20041;-64
2022/01/17 01:13:35;;;;;;;22.13;12.60;;;;;;;2.54;69.89;101313.47;10468319;28;20510;-63
2022/01/17 01:18:55;;;;;;;20.15;12.20;;;;;;;2.41;70.33;101316.13;10467979;28;20052;-63
2022/01/17 01:29:18;;;;;;;19.90;12.27;;;;;;;2.64;70.09;101332.38;10467805;28;20059;-63
2022/01/17 01:34:28;;;;;;;20.45;12.60;;;;;;;2.50;70.33;101322.09;10467608;28;20147;-63
2022/01/17 01:39:31;;;;;;;21.65;11.93;;;;;;;2.56;70.28;101332.41;10467904;28;20052;-64
2022/01/17 01:44:33;;;;;;;19.98;12.43;;;;;;;2.53;70.61;101326.41;10468865;28;20174;-64
2022/01/17 01:49:34;;;;;;;22.33;12.32;;;;;;;2.52;70.70;101324.69;10467557;28;20144;-63
2022/01/17 01:54:36;;;;;;;17.58;11.50;;;;;;;2.61;70.57;101333.25;10467072;28;20139;-63
2022/01/17 01:59:38;;;;;;;17.50;11.38;;;;;;;2.61;70.72;101330.66;10449091;28;20084;-63
2022/01/17 02:04:40;;;;;;;18.35;11.27;;;;;;;2.67;70.30;101324.59;10466949;28;20083;-63
2022/01/17 02:09:43;;;;;;;18.65;11.82;;;;;;;2.64;70.41;101309.13;10467390;28;20055;-64
2022/01/17 02:14:44;;;;;;;18.08;11.15;;;;;;;2.76;70.08;101319.41;10467198;28;20207;-64
2022/01/17 02:19:51;;;;;;;17.60;11.82;;;;;;;2.66;70.68;101307.41;10466661;28;20049;-61
2022/01/17 02:24:53;;;;;;;18.83;12.10;;;;;;;2.77;70.29;101303.88;10448489;28;20063;-63
2022/01/17 02:29:55;;;;;;;19.10;12.20;;;;;;;2.80;70.02;101295.25;10449043;28;20057;-64
2022/01/17 02:35:17;;;;;;;18.05;11.25;;;;;;;2.67;70.36;101309.09;10466664;28;20068;-63
2022/01/17 02:40:20;;;;;;;16.52;10.82;;;;;;;2.66;70.69;101321.16;10465786;28;20132;-64
2022/01/17 02:50:53;;;;;;;22.77;12.75;;;;;;;2.78;70.53;101323.69;10470775;28;20401;-64
2022/01/17 02:56:08;;;;;;;19.83;12.13;;;;;;;2.95;70.14;101315.81;10473932;28;20109;-64
2022/01/17 03:01:15;;;;;;;18.95;12.07;;;;;;;2.86;70.17;101311.59;10473723;28;20084;-64
2022/01/17 03:06:18;;;;;;;20.85;12.68;;;;;;;2.89;70.26;101305.53;10478977;28;20059;-64
2022/01/17 03:11:24;;;;;;;20.73;12.25;;;;;;;2.82;70.71;101290.94;10478398;28;20426;-64
2022/01/17 03:16:30;;;;;;;20.08;12.00;;;;;;;2.82;70.62;101296.09;10478158;28;20064;-63
2022/01/17 03:21:32;;;;;;;20.58;11.57;;;;;;;2.69;71.04;101292.75;10479037;28;20180;-64
2022/01/17 03:26:34;;;;;;;20.70;12.43;;;;;;;2.86;70.58;101298.66;10479714;28;20538;-63
2022/01/17 03:31:36;;;;;;;20.60;11.70;;;;;;;2.74;71.02;101282.38;10478721;28;20080;-64
2022/01/17 03:36:38;;;;;;;18.90;12.07;;;;;;;2.77;70.95;101265.13;10478011;28;20480;-63
2022/01/17 03:41:40;;;;;;;20.05;11.95;;;;;;;2.87;70.75;101269.38;10477768;28;20488;-63
2022/01/17 03:46:42;;;;;;;19.98;11.70;;;;;;;2.93;70.62;101279.66;10478368;28;20271;-64
2022/01/17 03:51:44;;;;;;;19.58;12.38;;;;;;;2.90;70.66;101290.03;10477426;28;20139;-63
2022/01/17 03:56:45;;;;;;;19.15;12.32;;;;;;;2.99;70.53;101277.03;10476886;28;20063;-64
2022/01/17 04:01:47;;;;;;;18.77;11.68;;;;;;;2.98;70.78;101285.66;10437220;28;1179486;-63
2022/01/17 04:06:49;;;;;;;21.05;12.70;;;;;;;2.94;70.91;101289.13;10473684;28;20076;-63
2022/01/17 04:11:51;;;;;;;20.15;12.50;;;;;;;3.05;70.53;101301.94;10472318;28;20048;-63
2022/01/17 04:16:52;;;;;;;18.15;11.30;;;;;;;3.13;70.32;101305.34;10471688;28;20060;-63
2022/01/17 04:21:54;;;;;;;18.95;11.50;;;;;;;3.24;70.02;101333.69;10472265;28;20055;-63
2022/01/17 04:26:56;;;;;;;18.75;11.60;;;;;;;3.25;70.21;101331.13;10470872;28;20156;-64
2022/01/17 04:31:58;;;;;;;17.70;11.50;;;;;;;3.29;69.89;101331.94;10471152;28;20698;-63
2022/01/17 04:37:03;;;;;;;20.08;11.32;;;;;;;3.33;69.96;101329.34;10471161;28;20143;-63
2022/01/17 04:42:12;;;;;;;17.50;11.20;;;;;;;3.36;69.77;101313.78;10470340;28;20060;-64
2022/01/17 04:47:13;;;;;;;16.98;11.63;;;;;;;3.24;70.00;101306.13;10470650;28;20803;-64
2022/01/17 04:52:15;;;;;;;16.95;10.98;;;;;;;3.21;70.24;101289.78;10470556;28;20716;-63
2022/01/17 04:57:18;;;;;;;16.15;10.80;;;;;;;3.31;70.07;101286.25;10452636;28;20098;-64
2022/01/17 05:02:20;;;;;;;17.92;10.85;;;;;;;3.38;69.66;101300.81;10469951;28;20074;-63
2022/01/17 05:07:22;;;;;;;15.48;10.35;;;;;;;3.40;69.74;101317.19;10451770;28;20052;-64
2022/01/17 05:12:25;;;;;;;13.95;9.18;;;;;;;3.34;69.90;101331.03;10469743;28;20481;-63
2022/01/17 05:22:32;;;;;;;16.38;11.30;;;;;;;3.45;69.46;101357.69;10469234;28;20539;-63
2022/01/17 05:27:35;;;;;;;14.95;10.25;;;;;;;3.26;69.78;101345.75;10469374;28;20576;-63
2022/01/17 05:32:37;;;;;;;14.18;9.82;;;;;;;3.30;69.88;101339.69;10469343;28;20055;-63
2022/01/17 05:37:40;;;;;;;13.45;8.73;;;;;;;3.31;69.79;101320.72;10469193;28;20143;-63
2022/01/17 05:42:42;;;;;;;12.50;8.57;;;;;;;3.42;69.54;101320.63;10468583;28;20446;-63
2022/01/17 05:47:45;;;;;;;13.27;8.68;;;;;;;3.41;69.73;101324.09;10468391;28;20389;-63
2022/01/17 05:52:46;;;;;;;12.98;8.77;;;;;;;3.46;69.50;101333.50;10468423;28;20439;-63
2022/01/17 05:57:48;;;;;;;12.18;8.05;;;;;;;3.50;69.39;101339.50;10450441;28;20057;-63
2022/01/17 06:02:50;;;;;;;14.40;9.13;;;;;;;3.41;69.51;101330.13;10469005;28;20063;-63
2022/01/17 06:07:51;;;;;;;13.05;8.48;;;;;;;3.48;69.31;101338.66;10467676;28;20485;-63
2022/01/17 06:12:53;;;;;;;13.27;8.75;;;;;;;3.45;69.32;101365.44;10468025;28;20055;-63
2022/01/17 06:17:55;;;;;;;11.90;8.40;;;;;;;3.51;69.22;101344.69;10466536;28;20520;-63
2022/01/17 06:22:57;;;;;;;12.60;8.25;;;;;;;3.49;69.04;101343.84;10467438;28;20499;-63
2022/01/17 06:27:59;;;;;;;14.15;7.85;;;;;;;3.41;69.18;101342.19;10467184;28;20056;-63
2022/01/17 06:33:03;;;;;;;18.38;10.60;;;;;;;3.50;69.17;101326.56;10468511;28;20141;-62
2022/01/17 06:38:04;;;;;;;28.05;15.43;;;;;;;3.55;68.92;101322.25;10466673;28;20518;-63
2022/01/17 06:43:08;;;;;;;12.32;8.40;;;;;;;3.52;68.93;101319.66;10466508;28;20053;-63
2022/01/17 06:48:10;;;;;;;11.65;7.97;;;;;;;3.54;68.84;101305.84;10448814;28;20064;-63
2022/01/17 06:53:12;;;;;;;12.40;7.65;;;;;;;3.58;68.73;101309.25;10467020;28;20432;-63
2022/01/17 06:58:13;;;;;;;13.18;8.30;;;;;;;3.57;68.64;101303.25;10466493;28;20064;-63
2022/01/17 07:03:15;;;;;;;13.63;7.95;;;;;;;3.54;68.65;101317.91;10467218;28;20139;-63
2022/01/17 07:08:17;;;;;;;13.13;8.32;;;;;;;3.69;68.47;101344.53;10465990;28;20335;-63
2022/01/17 07:13:19;;;;;;;12.85;8.07;;;;;;;3.69;68.43;101357.47;10466880;28;20420;-63
2022/01/17 07:18:21;;;;;;;15.27;9.25;;;;;;;3.69;68.36;101390.22;10462818;28;20063;-64
2022/01/17 07:23:23;;;;;;;15.23;8.95;;;;;;;3.69;68.49;101379.88;10466570;28;20052;-63
2022/01/17 07:28:24;;;;;;;16.40;8.77;;;;;;;3.70;68.42;101358.31;10451018;28;20469;-63
2022/01/17 07:33:28;;;;;;;14.55;9.18;;;;;;;3.82;68.25;101371.16;10473242;28;20057;-63
2022/01/17 07:38:29;;;;;;;14.18;8.60;;;;;;;3.83;68.05;101367.66;10471678;28;20052;-63
2022/01/17 07:43:31;;;;;;;15.23;9.55;;;;;;;3.85;67.94;101395.28;10472902;28;20142;-63
2022/01/17 07:53:56;;;;;;;15.27;9.15;;;;;;;3.78;68.04;101396.16;10472471;28;20057;-63
2022/01/17 07:58:58;;;;;;;13.75;8.30;;;;;;;3.70;68.25;101381.63;10473102;28;20056;-63
2022/01/17 08:04:00;;;;;;;15.43;8.38;;;;;;;3.79;67.82;101387.56;10454865;28;20049;-63
2022/01/17 08:09:04;;;;;;;14.23;8.30;;;;;;;3.72;67.78;101380.69;10472801;28;20048;-63
2022/01/17 08:14:26;;;;;;;14.65;8.43;;;;;;;3.64;67.89;101382.50;10472213;28;20291;-63
2022/01/17 08:19:29;;;;;;;17.05;7.43;;;;;;;3.73;67.64;101397.09;10472317;28;20064;-63
2022/01/17 08:24:35;;;;;;;13.00;7.22;;;;;;;3.72;67.39;101401.41;10472399;28;20270;-63
2022/01/17 08:29:36;;;;;;;13.95;7.88;;;;;;;3.67;67.51;101397.16;10453739;28;20102;-63
2022/01/17 08:34:38;;;;;;;13.75;7.75;;;;;;;3.74;67.27;101388.47;10470464;28;20151;-63
2022/01/17 08:39:40;;;;;;;16.42;7.55;;;;;;;3.75;67.32;101403.13;10469387;28;20052;-63
2022/01/17 08:44:49;;;;;;;17.33;8.25;;;;;;;3.92;67.03;101410.75;10470816;28;20515;-63
2022/01/17 08:49:51;;;;;;;14.48;7.60;;;;;;;4.01;66.75;101408.94;10453985;28;20266;-63
2022/01/17 08:54:53;;;;;;;14.50;7.78;;;;;;;4.09;66.66;101404.53;10470544;28;20140;-63
2022/01/17 08:59:55;;;;;;;14.48;7.45;;;;;;;4.05;66.66;101402.03;10470009;28;20062;-63
2022/01/17 09:04:57;;;;;;;20.98;13.63;;;;;;;4.17;66.23;101420.84;10470158;28;20084;-63
2022/01/17 09:09:58;;;;;;;15.38;8.10;;;;;;;4.27;66.11;101421.63;10452106;28;20135;-63
2022/01/17 09:15:01;;;;;;;15.88;8.40;;;;;;;4.33;66.13;101432.78;10468963;28;20048;-63
2022/01/17 09:20:04;;;;;;;13.93;7.75;;;;;;;4.42;65.86;101424.91;10468642;28;20065;-63
2022/01/17 09:25:08;;;;;;;12.95;7.00;;;;;;;4.51;65.52;101424.81;10455989;28;20059;-63
2022/01/17 09:30:15;;;;;;;11.40;7.05;;;;;;;4.65;65.09;101417.75;10450266;28;20044;-63
2022/01/17 09:35:18;;;;;;;12.60;7.68;;;;;;;4.69;64.82;101422.00;10467133;28;20064;-63
2022/01/17 09:40:19;;;;;;;13.45;7.68;;;;;;;4.88;64.65;101442.53;10466199;28;20508;-63
2022/01/17 09:45:22;;;;;;;13.40;7.22;;;;;;;4.90;64.16;101462.38;10448116;28;20072;-63
2022/01/17 09:50:33;;;;;;;13.07;7.10;;;;;;;4.74;64.22;101459.97;10466252;28;20408;-63
2022/01/17 09:55:36;;;;;;;14.00;7.05;;;;;;;4.77;64.64;101463.38;10428009;28;20052;-63
2022/01/17 10:00:41;;;;;;;13.95;7.20;;;;;;;4.93;63.85;101498.63;10464214;28;20416;-63
2022/01/17 10:05:44;;;;;;;14.50;6.57;;;;;;;5.00;63.86;101481.25;10456962;28;20131;-63
2022/01/17 10:10:51;;;;;;;15.40;6.53;;;;;;;4.99;63.82;101479.53;10462764;28;20044;-63
2022/01/17 10:16:04;;;;;;;11.18;6.22;;;;;;;4.87;63.52;101483.13;10445905;28;20060;-63
2022/01/17 10:21:16;;;;;;;13.05;6.60;;;;;;;4.88;63.57;101476.22;10448006;28;20075;-63
2022/01/17 10:36:58;;;;;;;11.07;6.37;;;;;;;5.14;63.47;101472.44;10462916;28;20135;-63
2022/01/17 10:42:31;;;;;;;12.60;6.40;;;;;;;5.31;62.22;101472.22;10460543;28;20057;-63
2022/01/17 10:47:36;;;;;;;12.48;6.32;;;;;;;5.53;62.67;101487.41;10430422;28;20045;-63
2022/01/17 10:52:43;;;;;;;13.23;6.70;;;;;;;5.78;62.12;101479.28;10464735;28;20102;-63
2022/01/17 10:57:48;;;;;;;12.02;6.45;;;;;;;6.00;61.83;101497.06;10464793;28;20070;-63
2022/01/17 11:02:53;;;;;;;11.10;6.53;;;;;;;5.95;61.39;101495.44;10466179;28;20139;-63
2022/01/17 11:08:00;;;;;;;13.85;7.18;;;;;;;6.22;61.20;101492.41;10469930;28;20481;-63
2022/01/17 11:13:07;;;;;;;14.52;7.38;;;;;;;6.33;60.84;101483.56;10471688;28;20175;-63
2022/01/17 11:18:17;;;;;;;15.50;8.43;;;;;;;6.29;60.78;101468.91;10459515;28;20056;-63
2022/01/17 11:23:22;;;;;;;13.57;7.72;;;;;;;6.44;60.61;101466.91;10470102;28;20746;-63
2022/01/17 11:28:27;;;;;;;15.93;8.60;;;;;;;6.34;60.58;101454.09;10452255;28;20079;-63
2022/01/17 11:33:35;;;;;;;15.60;9.57;;;;;;;6.22;60.40;101441.31;10468442;28;20052;-63
2022/01/17 11:38:42;;;;;;;15.85;9.45;;;;;;;6.54;60.65;101434.66;10468485;28;20056;-63
2022/01/17 11:43:55;;;;;;;18.60;10.20;;;;;;;6.52;60.65;101452.03;10469818;28;20334;-63
2022/01/17 11:49:02;;;;;;;16.60;10.57;;;;;;;6.71;60.28;101454.25;10469762;28;20145;-63
2022/01/17 11:54:31;;;;;;;17.48;10.80;;;;;;;6.54;59.87;101435.53;10468135;28;20868;-64
2022/01/17 11:59:48;;;;;;;16.52;10.40;;;;;;;6.51;60.20;101432.97;10466862;28;20052;-63
2022/01/17 12:05:11;;;;;;;17.55;11.77;;;;;;;6.48;60.24;101439.97;10467171;28;20512;-63
2022/01/17 12:10:15;;;;;;;21.02;12.48;;;;;;;6.50;60.71;101414.81;10463259;28;20052;-64
2022/01/17 12:15:17;;;;;;;21.58;12.88;;;;;;;6.37;61.15;101410.75;10449727;28;20174;-63
2022/01/17 12:20:21;;;;;;;23.45;13.75;;;;;;;6.30;61.33;101461.97;10465171;28;20048;-63
2022/01/17 12:25:27;;;;;;;30.55;17.05;;;;;;;6.26;61.50;101460.31;10467586;28;20059;-64
2022/01/17 12:30:42;;;;;;;20.95;13.00;;;;;;;6.20;61.69;101463.84;10466553;28;20049;-63
2022/01/17 12:35:45;;;;;;;19.35;12.63;;;;;;;6.18;61.87;101473.41;10462427;28;20048;-63
2022/01/17 12:40:47;;;;;;;21.40;12.30;;;;;;;6.16;62.11;101443.16;10458096;28;20172;-63
2022/01/17 12:45:56;;;;;;;17.77;11.30;;;;;;;6.22;61.95;101463.81;10464321;28;20056;-64
2022/01/17 12:51:03;;;;;;;21.90;12.80;;;;;;;6.28;62.16;101436.03;10464695;28;20488;-63
2022/01/17 12:56:08;;;;;;;20.08;11.68;;;;;;;6.37;62.00;101441.94;10465217;28;20091;-63
2022/01/17 13:01:15;;;;;;;20.85;12.45;;;;;;;6.51;61.91;101447.72;10454334;28;20137;-64
2022/01/17 13:06:19;;;;;;;19.33;11.48;;;;;;;6.47;62.01;101448.69;10464265;28;20395;-64
2022/01/17 13:11:22;;;;;;;18.98;11.35;;;;;;;6.48;62.33;101455.56;10466903;28;20061;-63
2022/01/17 13:16:25;;;;;;;16.85;11.43;;;;;;;6.47;62.31;101443.47;10466483;28;20092;-64
2022/01/17 13:21:27;;;;;;;20.30;10.93;;;;;;;6.46;62.42;101441.75;10466726;28;20291;-63
2022/01/17 13:26:33;;;;;;;17.08;11.63;;;;;;;6.36;62.62;101425.50;10467853;28;20106;-64
2022/01/17 13:31:36;;;;;;;22.15;11.73;;;;;;;6.42;62.58;101433.16;10467635;28;20049;-64
2022/01/17 13:36:39;;;;;;;17.58;11.40;;;;;;;6.54;62.57;101460.66;10465116;28;20049;-63
2022/01/17 13:41:50;;;;;;;16.13;10.73;;;;;;;6.53;62.63;101475.38;10465571;28;20060;-63
2022/01/17 13:47:00;;;;;;;19.02;12.05;;;;;;;6.53;62.94;101464.16;10467832;28;20059;-64
2022/01/17 13:52:03;;;;;;;18.00;10.82;;;;;;;6.42;63.37;101455.69;10467870;28;20064;-64
2022/01/17 13:57:17;;;;;;;20.27;11.52;;;;;;;6.37;63.33;101468.75;10467775;28;20060;-64
2022/01/17 14:02:40;;;;;;;18.13;11.48;;;;;;;6.37;63.61;101444.53;10466934;28;20520;-64
2022/01/17 14:07:43;;;;;;;20.27;12.07;;;;;;;6.43;63.61;101421.88;10461694;28;20044;-64
2022/01/17 14:12:44;;;;;;;19.00;11.18;;;;;;;6.36;63.87;101435.88;10466175;28;20468;-64
2022/01/17 14:17:46;;;;;;;23.17;11.50;;;;;;;6.49;63.96;101467.69;10466134;28;20139;-64
2022/01/17 14:22:50;;;;;;;18.88;11.50;;;;;;;6.22;65.23;101459.50;10465245;28;20060;-64
2022/01/17 14:28:10;;;;;;;20.25;12.70;;;;;;;6.16;65.47;101454.41;10465054;28;20048;-64
2022/01/17 14:33:13;;;;;;;17.00;11.50;;;;;;;6.24;65.13;101462.91;10464456;28;20088;-64
2022/01/17 14:38:15;;;;;;;18.60;13.23;;;;;;;6.30;65.15;101456.78;10466175;28;20079;-63
2022/01/17 14:43:17;;;;;;;17.30;10.48;;;;;;;6.21;65.56;101452.56;10438538;28;20584;-64
2022/01/17 14:48:22;;;;;;;15.32;10.23;;;;;;;6.27;65.40;101483.66;10474017;28;20056;-63
2022/01/17 14:53:24;;;;;;;16.38;10.63;;;;;;;6.28;65.29;101484.53;10473191;28;20124;-64
2022/01/17 15:03:53;;;;;;;13.02;9.15;;;;;;;6.29;65.20;101502.69;10467733;28;20045;-64
2022/01/17 15:08:56;;;;;;;15.23;9.23;;;;;;;6.32;65.25;101502.66;10468745;28;20049;-64
2022/01/17 15:13:58;;;;;;;15.40;8.02;;;;;;;6.20;65.47;101513.22;10472126;28;20235;-64
2022/01/17 15:18:59;;;;;;;13.00;8.85;;;;;;;6.22;65.61;101506.25;10472298;28;20052;-64
2022/01/17 15:24:02;;;;;;;13.45;9.43;;;;;;;6.25;65.56;101533.94;10472099;28;20397;-64
2022/01/17 15:29:06;;;;;;;15.68;9.93;;;;;;;6.23;65.87;101531.34;10472448;28;20307;-64
2022/01/17 15:34:08;;;;;;;14.52;9.52;;;;;;;6.09;66.47;101535.91;10472856;28;20063;-64
2022/01/17 15:39:10;;;;;;;18.08;11.50;;;;;;;6.25;66.12;101531.34;10471799;28;20518;-64
2022/01/17 15:44:12;;;;;;;18.15;12.23;;;;;;;6.14;66.54;101526.28;10472233;28;20055;-64
2022/01/17 15:49:14;;;;;;;16.67;11.52;;;;;;;6.15;66.58;101530.59;10471291;28;20467;-64
2022/01/17 15:54:16;;;;;;;19.17;11.73;;;;;;;6.17;66.67;101539.22;10454157;28;20083;-64
2022/01/17 15:59:19;;;;;;;17.58;11.63;;;;;;;6.12;66.65;101527.22;10470743;28;20669;-63
2022/01/17 16:04:21;;;;;;;17.02;11.68;;;;;;;6.17;66.62;101553.94;10471766;28;20139;-63
2022/01/17 16:09:23;;;;;;;19.88;13.05;;;;;;;6.19;66.84;101558.25;10471553;28;20095;-64
2022/01/17 16:14:26;;;;;;;19.85;12.55;;;;;;;6.21;66.69;101572.06;10470976;28;20379;-65
2022/01/17 16:19:28;;;;;;;20.05;12.77;;;;;;;6.25;66.70;101547.78;10452146;28;20053;-66
2022/01/17 16:24:48;;;;;;;18.13;12.77;;;;;;;6.14;67.00;101557.44;10470018;28;20810;-65
2022/01/17 16:29:52;;;;;;;23.83;13.38;;;;;;;6.12;67.48;101548.81;10468446;28;20044;-65
2022/01/17 16:34:56;;;;;;;21.05;14.50;;;;;;;6.11;67.62;101564.44;10465005;28;20059;-65
2022/01/17 16:40:00;;;;;;;26.75;14.30;;;;;;;6.11;67.79;101560.09;10460909;28;20139;-65
2022/01/17 16:45:06;;;;;;;22.33;15.38;;;;;;;6.10;68.08;101555.78;10469149;28;20053;-65
2022/01/17 16:50:13;;;;;;;;;;;;;;;5.81;68.98;101539.81;10468566;28;20151;-65
2022/01/17 16:55:16;;;;;;;27.27;16.55;;;;;;;6.23;67.64;101572.03;10468328;28;19924;-65
2022/01/17 17:00:19;;;;;;;27.23;14.73;;;;;;;6.22;67.79;101541.75;10467948;28;20062;-65
2022/01/17 17:05:21;;;;;;;24.13;14.88;;;;;;;6.21;67.84;101573.78;10439291;28;20058;-65
2022/01/17 17:10:24;;;;;;;26.23;15.77;;;;;;;6.21;67.83;101582.47;10459982;28;20110;-65
2022/01/17 17:15:26;;;;;;;28.25;14.85;;;;;;;6.27;67.47;101566.81;10445804;28;22497;-65
2022/01/17 17:20:29;;;;;;;23.88;15.73;;;;;;;6.34;67.48;101583.16;10464809;28;20052;-65
2022/01/17 17:25:30;;;;;;;28.25;16.17;;;;;;;6.34;67.44;101573.63;10467620;28;20416;-66
2022/01/17 17:30:32;;;;;;;28.83;16.08;;;;;;;6.32;67.65;101571.94;10467228;28;20131;-65
2022/01/17 17:35:36;;;;;;;29.25;16.70;;;;;;;6.38;67.78;101573.56;10465865;28;20135;-65
2022/01/17 17:40:40;;;;;;;27.38;15.75;;;;;;;6.38;67.63;101589.16;10449073;28;20048;-66
2022/01/17 17:45:42;;;;;;;35.33;17.67;;;;;;;6.42;67.56;101596.00;10466238;28;20373;-65
2022/01/17 17:50:45;;;;;;;28.95;15.80;;;;;;;6.52;67.41;101613.19;10460103;28;20060;-65
2022/01/17 17:55:46;;;;;;;36.08;20.33;;;;;;;6.58;67.30;101623.47;10464032;28;20140;-65
2022/01/17 18:00:48;;;;;;;31.00;17.05;;;;;;;6.62;67.35;101638.13;10465082;28;20170;-65
2022/01/17 18:05:50;;;;;;;28.38;16.77;;;;;;;6.58;67.38;101633.88;10465441;28;20056;-65
2022/01/17 18:10:52;;;;;;;30.60;17.13;;;;;;;6.58;67.43;101637.34;10446727;28;20052;-65
2022/01/17 18:15:54;;;;;;;34.30;18.65;;;;;;;6.53;67.56;101627.91;10456534;28;20048;-65
2022/01/17 18:20:56;;;;;;;33.03;17.88;;;;;;;6.56;67.44;101620.91;10446126;28;20066;-65
2022/01/17 18:25:57;;;;;;;35.53;18.83;;;;;;;6.63;67.44;101627.72;10464183;28;20620;-65
2022/01/17 18:30:59;;;;;;;37.15;19.77;;;;;;;6.59;67.48;101626.06;10461060;28;20428;-66
2022/01/17 18:36:07;;;;;;;35.20;20.50;;;;;;;6.60;67.49;101645.09;10464252;28;20167;-66
2022/01/17 18:41:09;;;;;;;34.60;19.52;;;;;;;6.63;67.54;101645.06;10465368;28;20082;-63
2022/01/17 18:46:11;;;;;;;37.63;21.58;;;;;;;6.64;67.72;101647.63;10446367;28;20127;-64
2022/01/17 18:51:16;;;;;;;37.70;22.35;;;;;;;6.70;67.77;101638.84;10464095;28;20504;-64
2022/01/17 18:56:18;;;;;;;31.10;19.83;;;;;;;6.59;67.86;101641.66;10458083;28;20102;-64
2022/01/17 19:01:20;;;;;;;34.65;19.65;;;;;;;6.67;67.92;101651.94;10463725;28;20523;-64
2022/01/17 19:06:22;;;;;;;42.22;25.30;;;;;;;6.76;67.74;101655.22;10444929;28;20053;-64
2022/01/17 19:11:24;;;;;;;29.73;18.90;;;;;;;6.65;68.08;101661.50;10462626;28;20131;-64
2022/01/17 19:16:26;;;;;;;36.80;23.02;;;;;;;6.62;68.14;101659.78;10458037;28;20048;-64
2022/01/17 19:21:42;;;;;;;35.10;20.70;;;;;;;6.69;68.08;101663.16;10460880;28;20044;-64
2022/01/17 19:26:47;;;;;;;37.33;20.90;;;;;;;6.69;68.11;101665.75;10469294;28;20128;-64
2022/01/17 19:31:51;;;;;;;35.88;20.33;;;;;;;6.68;68.09;101672.69;10470639;28;20052;-64
2022/01/17 19:36:53;;;;;;;33.30;19.98;;;;;;;6.71;67.94;101672.66;10453021;28;20539;-64
2022/01/17 19:41:54;;;;;;;47.85;28.90;;;;;;;6.66;67.79;101666.66;10470387;28;20411;-64
2022/01/17 19:47:01;;;;;;;32.55;17.00;;;;;;;6.58;67.95;101670.25;10469339;28;20059;-63
2022/01/17 19:52:03;;;;;;;32.47;18.38;;;;;;;6.58;68.11;101702.31;10470434;28;20195;-64
2022/01/17 19:57:05;;;;;;;33.47;18.45;;;;;;;6.67;67.98;101707.38;10469599;28;20411;-64
2022/01/17 20:02:08;;;;;;;27.27;17.85;;;;;;;6.71;67.89;101710.78;10448089;28;20059;-63
2022/01/17 20:07:10;;;;;;;30.25;18.90;;;;;;;6.81;67.66;101717.56;10450799;28;20432;-64
2022/01/17 20:12:12;;;;;;;28.48;17.38;;;;;;;6.82;67.28;101727.06;10463528;28;20475;-64
2022/01/17 20:17:13;;;;;;;32.30;17.50;;;;;;;6.85;67.19;101742.63;10467240;28;20048;-65
2022/01/17 20:22:15;;;;;;;31.15;16.88;;;;;;;6.84;67.08;101759.09;10468555;28;20145;-65
2022/01/17 20:27:28;;;;;;;24.67;16.27;;;;;;;6.93;66.98;101751.16;10470339;28;20048;-64
2022/01/17 20:32:31;;;;;;;31.05;15.43;;;;;;;6.95;66.72;101763.28;10452449;28;20052;-64
2022/01/17 20:37:34;;;;;;;32.53;16.63;;;;;;;6.93;66.80;101771.97;10468312;28;20088;-64
2022/01/17 20:42:36;;;;;;;28.63;16.52;;;;;;;6.99;66.76;101764.94;10468658;28;20704;-64
2022/01/17 20:47:38;;;;;;;33.95;17.00;;;;;;;6.97;66.93;101777.13;10468872;28;20146;-65
2022/01/17 20:52:40;;;;;;;33.72;15.60;;;;;;;6.85;67.12;101782.50;10468980;28;20067;-64
2022/01/17 20:57:43;;;;;;;35.88;17.13;;;;;;;6.94;66.88;101781.47;10468491;28;20047;-67
2022/01/17 21:02:47;;;;;;;32.60;17.00;;;;;;;7.00;66.81;101786.59;10467577;28;20168;-66
2022/01/17 21:07:50;;;;;;;40.80;16.55;;;;;;;7.00;66.79;101781.38;10468086;28;20058;-67
2022/01/17 21:12:52;;;;;;;30.13;15.43;;;;;;;6.97;66.74;101784.91;10450673;28;20092;-67
2022/01/17 21:17:54;;;;;;;34.83;14.80;;;;;;;6.92;66.92;101788.44;10449913;28;20447;-67
2022/01/17 21:22:56;;;;;;;37.95;15.13;;;;;;;6.93;66.95;101782.38;10467899;28;20065;-67
2022/01/17 21:27:58;;;;;;;28.45;14.05;;;;;;;6.91;66.93;101781.56;10467232;28;20526;-67
2022/01/17 21:33:00;;;;;;;30.23;14.07;;;;;;;6.95;66.73;101785.81;10466845;28;20071;-66
2022/01/17 21:38:03;;;;;;;33.63;13.98;;;;;;;7.01;66.52;101781.38;10468172;28;20505;-66
2022/01/17 21:43:05;;;;;;;30.55;12.40;;;;;;;7.05;66.30;101784.78;10449949;28;20110;-66
2022/01/17 21:48:07;;;;;;;33.75;13.63;;;;;;;6.97;66.34;101791.84;10466166;28;20088;-67
2022/01/17 21:53:11;;;;;;;32.65;11.75;;;;;;;6.97;66.44;101789.25;10466903;28;20060;-67
2022/01/17 21:58:13;;;;;;;31.55;11.63;;;;;;;7.01;66.15;101788.31;10467414;28;20504;-66
2022/01/17 22:03:15;;;;;;;33.10;10.77;;;;;;;7.08;65.80;101788.19;10466389;28;20053;-67
2022/01/17 22:08:17;;;;;;;34.03;11.85;;;;;;;7.03;65.93;101779.63;10466101;28;20082;-67
2022/01/17 22:13:20;;;;;;;31.10;11.70;;;;;;;6.99;65.73;101784.88;10466808;28;20587;-66
2022/01/17 22:18:22;;;;;;;33.50;11.35;;;;;;;6.95;65.83;101781.47;10465207;28;20052;-66
2022/01/17 22:23:24;;;;;;;30.63;9.90;;;;;;;6.85;65.73;101779.91;10449086;28;20175;-66
2022/01/17 22:28:25;;;;;;;29.60;9.60;;;;;;;6.90;65.47;101792.81;10449348;28;20748;-67
2022/01/17 22:33:27;;;;;;;26.48;8.70;;;;;;;6.86;65.12;101781.63;10465519;28;20552;-66
2022/01/17 22:38:29;;;;;;;31.27;9.48;;;;;;;6.74;65.23;101778.31;10466994;28;20074;-66
2022/01/17 22:43:31;;;;;;;32.47;9.82;;;;;;;6.60;65.49;101780.28;10465987;28;20131;-66
2022/01/17 22:48:35;;;;;;;26.85;9.43;;;;;;;6.57;65.44;101793.34;10465499;28;20052;-66
2022/01/17 22:53:36;;;;;;;26.73;9.43;;;;;;;6.52;65.47;101785.59;10466824;28;20048;-67
2022/01/17 22:58:38;;;;;;;31.45;8.15;;;;;;;6.47;65.27;101796.94;10449740;28;20053;-66
2022/01/17 23:03:40;;;;;;;21.63;7.95;;;;;;;6.43;65.49;101796.09;10473155;28;20080;-66
2022/01/17 23:08:42;;;;;;;27.38;8.15;;;;;;;6.38;65.47;101805.72;10473028;28;20438;-66
2022/01/17 23:13:44;;;;;;;31.92;8.30;;;;;;;6.31;65.42;101804.06;10474008;28;20503;-66
2022/01/17 23:18:53;;;;;;;30.40;8.77;;;;;;;6.28;65.53;101801.50;10472693;28;20131;-67
2022/01/17 23:23:55;;;;;;;29.60;8.88;;;;;;;6.25;65.40;101807.59;10472103;28;20057;-66
2022/01/17 23:28:57;;;;;;;30.08;7.55;;;;;;;6.42;64.85;101816.91;10472413;28;20404;-66
2022/01/17 23:34:04;;;;;;;28.80;7.43;;;;;;;6.53;64.82;101817.66;10471733;28;20494;-66
2022/01/17 23:39:10;;;;;;;23.95;7.95;;;;;;;6.66;64.61;101819.19;10472353;28;20154;-66
2022/01/17 23:44:12;;;;;;;24.15;8.38;;;;;;;6.76;64.25;101816.44;10472615;28;20355;-66
2022/01/17 23:49:15;;;;;;;31.38;7.28;;;;;;;6.84;64.14;101824.13;10471710;28;20140;-66